sensor_id;sensor_type;location;lat;lon;timestamp;P1;durP1;ratioP1;P2;durP2;ratioP2
62437;SDS011;48481;0.000;0.000;2023-05-07T00:02:22;9.30;;;6.72;;
62437;SDS011;48481;0.000;0.000;2023-05-07T00:04:48;7.93;;;6.65;;
62437;SDS011;48481;0.000;0.000;2023-05-07T00:07:14;8.93;;;6.70;;
62437;SDS011;48481;0.000;0.000;2023-05-07T00:09:39;10.57;;;7.03;;
62437;SDS011;48481;0.000;0.000;2023-05-07T00:12:05;10.02;;;7.18;;
62437;SDS011;48481;0.000;0.000;2023-05-07T00:14:31;11.80;;;7.35;;
62437;SDS011;48481;0.000;0.000;2023-05-07T00:16:56;13.73;;;7.65;;
62437;SDS011;48481;0.000;0.000;2023-05-07T00:19:21;13.50;;;7.15;;
62437;SDS011;48481;0.000;0.000;2023-05-07T00:21:47;9.50;;;7.18;;
62437;SDS011;48481;0.000;0.000;2023-05-07T00:24:12;6.93;;;6.07;;
62437;SDS011;48481;0.000;0.000;2023-05-07T00:26:37;8.88;;;6.70;;
62437;SDS011;48481;0.000;0.000;2023-05-07T00:29:03;8.23;;;6.85;;
62437;SDS011;48481;0.000;0.000;2023-05-07T00:31:28;7.90;;;6.05;;
62437;SDS011;48481;0.000;0.000;2023-05-07T00:33:53;13.98;;;7.47;;
62437;SDS011;48481;0.000;0.000;2023-05-07T00:36:19;10.70;;;6.70;;
62437;SDS011;48481;0.000;0.000;2023-05-07T00:38:44;11.00;;;7.85;;
62437;SDS011;48481;0.000;0.000;2023-05-07T00:41:09;10.32;;;6.97;;
62437;SDS011;48481;0.000;0.000;2023-05-07T00:43:35;10.40;;;7.55;;
62437;SDS011;48481;0.000;0.000;2023-05-07T00:46:00;8.57;;;5.88;;
62437;SDS011;48481;0.000;0.000;2023-05-07T00:48:26;8.90;;;6.25;;
62437;SDS011;48481;0.000;0.000;2023-05-07T00:50:52;6.72;;;5.90;;
62437;SDS011;48481;0.000;0.000;2023-05-07T00:53:18;6.50;;;5.57;;
62437;SDS011;48481;0.000;0.000;2023-05-07T00:55:44;9.02;;;6.45;;
62437;SDS011;48481;0.000;0.000;2023-05-07T00:58:09;7.47;;;5.88;;
62437;SDS011;48481;0.000;0.000;2023-05-07T01:00:35;5.85;;;5.25;;
62437;SDS011;48481;0.000;0.000;2023-05-07T01:03:00;7.15;;;5.70;;
62437;SDS011;48481;0.000;0.000;2023-05-07T01:05:26;8.50;;;5.80;;
62437;SDS011;48481;0.000;0.000;2023-05-07T01:07:54;9.20;;;5.78;;
62437;SDS011;48481;0.000;0.000;2023-05-07T01:10:21;8.55;;;6.43;;
62437;SDS011;48481;0.000;0.000;2023-05-07T01:12:47;10.82;;;6.78;;
62437;SDS011;48481;0.000;0.000;2023-05-07T01:15:14;6.32;;;5.43;;
62437;SDS011;48481;0.000;0.000;2023-05-07T01:17:40;9.20;;;5.63;;
62437;SDS011;48481;0.000;0.000;2023-05-07T01:20:07;6.85;;;5.95;;
62437;SDS011;48481;0.000;0.000;2023-05-07T01:22:35;7.70;;;5.85;;
62437;SDS011;48481;0.000;0.000;2023-05-07T01:25:03;6.85;;;5.60;;
62437;SDS011;48481;0.000;0.000;2023-05-07T01:27:29;6.95;;;6.25;;
62437;SDS011;48481;0.000;0.000;2023-05-07T01:29:55;5.32;;;4.85;;
62437;SDS011;48481;0.000;0.000;2023-05-07T01:32:23;6.57;;;5.18;;
62437;SDS011;48481;0.000;0.000;2023-05-07T01:35:06;5.65;;;5.15;;
62437;SDS011;48481;0.000;0.000;2023-05-07T01:37:34;5.55;;;5.05;;
62437;SDS011;48481;0.000;0.000;2023-05-07T01:40:00;8.63;;;5.72;;
62437;SDS011;48481;0.000;0.000;2023-05-07T01:42:27;5.85;;;5.30;;
62437;SDS011;48481;0.000;0.000;2023-05-07T01:44:54;5.95;;;5.38;;
62437;SDS011;48481;0.000;0.000;2023-05-07T01:47:20;5.57;;;4.90;;
62437;SDS011;48481;0.000;0.000;2023-05-07T01:49:46;6.28;;;5.43;;
62437;SDS011;48481;0.000;0.000;2023-05-07T01:52:11;5.35;;;4.85;;
62437;SDS011;48481;0.000;0.000;2023-05-07T01:54:37;5.30;;;4.80;;
62437;SDS011;48481;0.000;0.000;2023-05-07T01:57:02;6.32;;;4.90;;
62437;SDS011;48481;0.000;0.000;2023-05-07T01:59:27;5.45;;;4.95;;
62437;SDS011;48481;0.000;0.000;2023-05-07T02:01:53;14.38;;;10.27;;
62437;SDS011;48481;0.000;0.000;2023-05-07T02:04:18;10.07;;;5.80;;
62437;SDS011;48481;0.000;0.000;2023-05-07T02:06:44;12.02;;;9.02;;
62437;SDS011;48481;0.000;0.000;2023-05-07T02:09:09;9.15;;;7.60;;
62437;SDS011;48481;0.000;0.000;2023-05-07T02:11:35;6.68;;;4.97;;
62437;SDS011;48481;0.000;0.000;2023-05-07T02:14:00;6.10;;;4.72;;
62437;SDS011;48481;0.000;0.000;2023-05-07T02:16:26;6.88;;;5.78;;
62437;SDS011;48481;0.000;0.000;2023-05-07T02:18:51;7.13;;;5.60;;
62437;SDS011;48481;0.000;0.000;2023-05-07T02:21:17;6.50;;;5.80;;
62437;SDS011;48481;0.000;0.000;2023-05-07T02:23:42;5.82;;;5.18;;
62437;SDS011;48481;0.000;0.000;2023-05-07T02:26:07;10.90;;;5.90;;
62437;SDS011;48481;0.000;0.000;2023-05-07T02:28:33;8.90;;;5.82;;
62437;SDS011;48481;0.000;0.000;2023-05-07T02:31:02;12.63;;;5.80;;
62437;SDS011;48481;0.000;0.000;2023-05-07T02:33:28;10.00;;;5.80;;
62437;SDS011;48481;0.000;0.000;2023-05-07T02:35:53;6.57;;;5.45;;
62437;SDS011;48481;0.000;0.000;2023-05-07T02:38:18;6.00;;;5.38;;
62437;SDS011;48481;0.000;0.000;2023-05-07T02:40:44;6.38;;;5.05;;
62437;SDS011;48481;0.000;0.000;2023-05-07T02:43:09;6.60;;;5.18;;
62437;SDS011;48481;0.000;0.000;2023-05-07T02:45:35;7.53;;;4.80;;
62437;SDS011;48481;0.000;0.000;2023-05-07T02:48:02;8.10;;;5.25;;
62437;SDS011;48481;0.000;0.000;2023-05-07T02:50:28;6.03;;;5.20;;
62437;SDS011;48481;0.000;0.000;2023-05-07T02:52:53;6.72;;;5.75;;
62437;SDS011;48481;0.000;0.000;2023-05-07T02:55:19;6.65;;;5.75;;
62437;SDS011;48481;0.000;0.000;2023-05-07T02:57:45;8.07;;;6.38;;
62437;SDS011;48481;0.000;0.000;2023-05-07T03:00:13;6.25;;;5.53;;
62437;SDS011;48481;0.000;0.000;2023-05-07T03:02:40;8.73;;;5.70;;
62437;SDS011;48481;0.000;0.000;2023-05-07T03:05:06;6.95;;;5.03;;
62437;SDS011;48481;0.000;0.000;2023-05-07T03:07:32;7.00;;;5.15;;
62437;SDS011;48481;0.000;0.000;2023-05-07T03:09:57;7.55;;;5.55;;
62437;SDS011;48481;0.000;0.000;2023-05-07T03:12:22;9.13;;;5.68;;
62437;SDS011;48481;0.000;0.000;2023-05-07T03:14:48;7.35;;;5.43;;
62437;SDS011;48481;0.000;0.000;2023-05-07T03:17:13;5.93;;;5.25;;
62437;SDS011;48481;0.000;0.000;2023-05-07T03:19:38;8.35;;;5.80;;
62437;SDS011;48481;0.000;0.000;2023-05-07T03:22:04;9.75;;;6.30;;
62437;SDS011;48481;0.000;0.000;2023-05-07T03:24:29;8.77;;;6.50;;
62437;SDS011;48481;0.000;0.000;2023-05-07T03:26:55;9.40;;;6.78;;
62437;SDS011;48481;0.000;0.000;2023-05-07T03:29:22;8.40;;;5.63;;
62437;SDS011;48481;0.000;0.000;2023-05-07T03:31:48;8.48;;;6.30;;
62437;SDS011;48481;0.000;0.000;2023-05-07T03:34:13;8.80;;;6.47;;
62437;SDS011;48481;0.000;0.000;2023-05-07T03:36:39;7.75;;;5.68;;
62437;SDS011;48481;0.000;0.000;2023-05-07T03:39:04;10.57;;;6.43;;
62437;SDS011;48481;0.000;0.000;2023-05-07T03:41:29;8.63;;;6.50;;
62437;SDS011;48481;0.000;0.000;2023-05-07T03:43:55;9.27;;;6.43;;
62437;SDS011;48481;0.000;0.000;2023-05-07T03:46:20;7.65;;;5.60;;
62437;SDS011;48481;0.000;0.000;2023-05-07T03:48:46;7.45;;;6.15;;
62437;SDS011;48481;0.000;0.000;2023-05-07T03:51:11;6.82;;;5.68;;
62437;SDS011;48481;0.000;0.000;2023-05-07T03:53:36;8.02;;;5.75;;
62437;SDS011;48481;0.000;0.000;2023-05-07T03:56:02;7.22;;;5.65;;
62437;SDS011;48481;0.000;0.000;2023-05-07T03:58:27;6.20;;;5.55;;
62437;SDS011;48481;0.000;0.000;2023-05-07T04:00:53;8.52;;;6.10;;
62437;SDS011;48481;0.000;0.000;2023-05-07T04:03:18;9.85;;;6.78;;
62437;SDS011;48481;0.000;0.000;2023-05-07T04:05:44;10.00;;;6.43;;
62437;SDS011;48481;0.000;0.000;2023-05-07T04:08:09;6.68;;;5.93;;
62437;SDS011;48481;0.000;0.000;2023-05-07T04:10:35;7.38;;;6.10;;
62437;SDS011;48481;0.000;0.000;2023-05-07T04:13:00;7.05;;;6.20;;
62437;SDS011;48481;0.000;0.000;2023-05-07T04:15:25;8.27;;;6.15;;
62437;SDS011;48481;0.000;0.000;2023-05-07T04:17:51;10.43;;;5.93;;
62437;SDS011;48481;0.000;0.000;2023-05-07T04:20:16;9.35;;;6.13;;
62437;SDS011;48481;0.000;0.000;2023-05-07T04:22:42;7.47;;;6.00;;
62437;SDS011;48481;0.000;0.000;2023-05-07T04:25:08;8.75;;;6.25;;
62437;SDS011;48481;0.000;0.000;2023-05-07T04:27:34;8.05;;;6.43;;
62437;SDS011;48481;0.000;0.000;2023-05-07T04:30:01;9.93;;;7.05;;
62437;SDS011;48481;0.000;0.000;2023-05-07T04:32:27;8.25;;;6.05;;
62437;SDS011;48481;0.000;0.000;2023-05-07T04:34:54;9.27;;;6.50;;
62437;SDS011;48481;0.000;0.000;2023-05-07T04:37:21;10.75;;;6.07;;
62437;SDS011;48481;0.000;0.000;2023-05-07T04:39:47;14.20;;;7.10;;
62437;SDS011;48481;0.000;0.000;2023-05-07T04:42:18;8.65;;;5.82;;
62437;SDS011;48481;0.000;0.000;2023-05-07T04:44:44;6.18;;;5.57;;
62437;SDS011;48481;0.000;0.000;2023-05-07T04:47:10;7.88;;;6.07;;
62437;SDS011;48481;0.000;0.000;2023-05-07T04:49:36;7.90;;;6.05;;
62437;SDS011;48481;0.000;0.000;2023-05-07T04:52:02;7.97;;;6.07;;
62437;SDS011;48481;0.000;0.000;2023-05-07T04:54:28;11.20;;;5.85;;
62437;SDS011;48481;0.000;0.000;2023-05-07T04:56:55;9.15;;;5.78;;
62437;SDS011;48481;0.000;0.000;2023-05-07T04:59:20;6.10;;;5.47;;
62437;SDS011;48481;0.000;0.000;2023-05-07T05:01:46;8.93;;;5.80;;
62437;SDS011;48481;0.000;0.000;2023-05-07T05:04:11;6.93;;;5.90;;
62437;SDS011;48481;0.000;0.000;2023-05-07T05:06:37;5.60;;;4.93;;
62437;SDS011;48481;0.000;0.000;2023-05-07T05:09:03;6.50;;;5.25;;
62437;SDS011;48481;0.000;0.000;2023-05-07T05:11:30;5.75;;;5.13;;
62437;SDS011;48481;0.000;0.000;2023-05-07T05:13:55;6.85;;;5.45;;
62437;SDS011;48481;0.000;0.000;2023-05-07T05:16:21;5.65;;;5.15;;
62437;SDS011;48481;0.000;0.000;2023-05-07T05:18:47;6.07;;;5.10;;
62437;SDS011;48481;0.000;0.000;2023-05-07T05:21:12;7.07;;;5.20;;
62437;SDS011;48481;0.000;0.000;2023-05-07T05:23:37;7.35;;;5.35;;
62437;SDS011;48481;0.000;0.000;2023-05-07T05:26:03;5.40;;;4.93;;
62437;SDS011;48481;0.000;0.000;2023-05-07T05:28:29;8.18;;;5.57;;
62437;SDS011;48481;0.000;0.000;2023-05-07T05:30:54;8.50;;;5.18;;
62437;SDS011;48481;0.000;0.000;2023-05-07T05:33:20;5.85;;;4.90;;
62437;SDS011;48481;0.000;0.000;2023-05-07T05:35:45;7.95;;;5.55;;
62437;SDS011;48481;0.000;0.000;2023-05-07T05:38:11;5.32;;;4.65;;
62437;SDS011;48481;0.000;0.000;2023-05-07T05:40:36;5.95;;;5.32;;
62437;SDS011;48481;0.000;0.000;2023-05-07T05:43:01;5.93;;;5.32;;
62437;SDS011;48481;0.000;0.000;2023-05-07T05:45:27;8.15;;;5.30;;
62437;SDS011;48481;0.000;0.000;2023-05-07T05:47:52;5.57;;;4.93;;
62437;SDS011;48481;0.000;0.000;2023-05-07T05:50:18;15.15;;;9.00;;
62437;SDS011;48481;0.000;0.000;2023-05-07T05:52:43;10.52;;;5.63;;
62437;SDS011;48481;0.000;0.000;2023-05-07T05:55:09;8.70;;;5.32;;
62437;SDS011;48481;0.000;0.000;2023-05-07T05:57:34;5.53;;;5.00;;
62437;SDS011;48481;0.000;0.000;2023-05-07T06:00:00;7.68;;;5.22;;
62437;SDS011;48481;0.000;0.000;2023-05-07T06:02:27;8.75;;;6.03;;
62437;SDS011;48481;0.000;0.000;2023-05-07T06:04:53;7.72;;;5.43;;
62437;SDS011;48481;0.000;0.000;2023-05-07T06:07:18;6.15;;;5.32;;
62437;SDS011;48481;0.000;0.000;2023-05-07T06:09:43;6.40;;;5.30;;
62437;SDS011;48481;0.000;0.000;2023-05-07T06:12:09;5.68;;;4.82;;
62437;SDS011;48481;0.000;0.000;2023-05-07T06:14:34;8.23;;;6.07;;
62437;SDS011;48481;0.000;0.000;2023-05-07T06:17:00;5.60;;;4.97;;
62437;SDS011;48481;0.000;0.000;2023-05-07T06:19:25;7.35;;;5.93;;
62437;SDS011;48481;0.000;0.000;2023-05-07T06:21:51;15.63;;;9.15;;
62437;SDS011;48481;0.000;0.000;2023-05-07T06:24:17;7.32;;;6.38;;
62437;SDS011;48481;0.000;0.000;2023-05-07T06:26:42;8.65;;;5.50;;
62437;SDS011;48481;0.000;0.000;2023-05-07T06:29:07;9.05;;;5.97;;
62437;SDS011;48481;0.000;0.000;2023-05-07T06:31:33;7.22;;;5.00;;
62437;SDS011;48481;0.000;0.000;2023-05-07T06:33:58;5.93;;;4.68;;
62437;SDS011;48481;0.000;0.000;2023-05-07T06:36:24;6.72;;;5.22;;
62437;SDS011;48481;0.000;0.000;2023-05-07T06:38:50;8.02;;;5.72;;
62437;SDS011;48481;0.000;0.000;2023-05-07T06:41:15;7.18;;;5.63;;
62437;SDS011;48481;0.000;0.000;2023-05-07T06:43:40;6.57;;;5.75;;
62437;SDS011;48481;0.000;0.000;2023-05-07T06:46:06;7.07;;;5.32;;
62437;SDS011;48481;0.000;0.000;2023-05-07T06:48:31;6.05;;;5.45;;
62437;SDS011;48481;0.000;0.000;2023-05-07T06:50:57;9.60;;;5.53;;
62437;SDS011;48481;0.000;0.000;2023-05-07T06:53:23;9.23;;;6.13;;
62437;SDS011;48481;0.000;0.000;2023-05-07T06:55:48;12.27;;;8.52;;
62437;SDS011;48481;0.000;0.000;2023-05-07T06:58:14;7.15;;;5.10;;
62437;SDS011;48481;0.000;0.000;2023-05-07T07:00:39;8.15;;;5.55;;
62437;SDS011;48481;0.000;0.000;2023-05-07T07:03:05;8.18;;;5.68;;
62437;SDS011;48481;0.000;0.000;2023-05-07T07:05:31;8.68;;;4.80;;
62437;SDS011;48481;0.000;0.000;2023-05-07T07:07:57;7.43;;;5.07;;
62437;SDS011;48481;0.000;0.000;2023-05-07T07:10:22;5.78;;;4.93;;
62437;SDS011;48481;0.000;0.000;2023-05-07T07:12:48;4.65;;;4.10;;
62437;SDS011;48481;0.000;0.000;2023-05-07T07:15:14;9.30;;;4.93;;
62437;SDS011;48481;0.000;0.000;2023-05-07T07:17:40;6.60;;;4.22;;
62437;SDS011;48481;0.000;0.000;2023-05-07T07:20:05;4.68;;;4.15;;
62437;SDS011;48481;0.000;0.000;2023-05-07T07:22:31;5.82;;;4.25;;
62437;SDS011;48481;0.000;0.000;2023-05-07T07:24:57;10.77;;;4.40;;
62437;SDS011;48481;0.000;0.000;2023-05-07T07:27:22;6.28;;;4.30;;
62437;SDS011;48481;0.000;0.000;2023-05-07T07:29:48;3.80;;;3.47;;
62437;SDS011;48481;0.000;0.000;2023-05-07T07:32:13;4.65;;;4.00;;
62437;SDS011;48481;0.000;0.000;2023-05-07T07:34:39;5.97;;;3.95;;
62437;SDS011;48481;0.000;0.000;2023-05-07T07:37:04;4.28;;;3.95;;
62437;SDS011;48481;0.000;0.000;2023-05-07T07:39:34;5.68;;;4.55;;
62437;SDS011;48481;0.000;0.000;2023-05-07T07:42:00;5.45;;;4.75;;
62437;SDS011;48481;0.000;0.000;2023-05-07T07:44:26;6.03;;;3.97;;
62437;SDS011;48481;0.000;0.000;2023-05-07T07:46:53;4.03;;;3.63;;
62437;SDS011;48481;0.000;0.000;2023-05-07T07:49:18;8.38;;;3.92;;
62437;SDS011;48481;0.000;0.000;2023-05-07T07:51:44;5.22;;;4.65;;
62437;SDS011;48481;0.000;0.000;2023-05-07T07:54:09;4.32;;;4.03;;
62437;SDS011;48481;0.000;0.000;2023-05-07T07:56:35;4.72;;;4.22;;
62437;SDS011;48481;0.000;0.000;2023-05-07T07:59:00;5.68;;;4.80;;
62437;SDS011;48481;0.000;0.000;2023-05-07T08:01:26;4.50;;;4.00;;
62437;SDS011;48481;0.000;0.000;2023-05-07T08:03:52;6.78;;;4.28;;
62437;SDS011;48481;0.000;0.000;2023-05-07T08:06:17;8.70;;;4.93;;
62437;SDS011;48481;0.000;0.000;2023-05-07T08:08:43;8.55;;;4.50;;
62437;SDS011;48481;0.000;0.000;2023-05-07T08:11:09;5.40;;;4.15;;
62437;SDS011;48481;0.000;0.000;2023-05-07T08:13:35;5.38;;;4.82;;
62437;SDS011;48481;0.000;0.000;2023-05-07T08:16:01;6.95;;;4.22;;
62437;SDS011;48481;0.000;0.000;2023-05-07T08:18:27;5.72;;;3.90;;
62437;SDS011;48481;0.000;0.000;2023-05-07T08:20:54;4.05;;;3.75;;
62437;SDS011;48481;0.000;0.000;2023-05-07T08:23:19;4.45;;;3.85;;
62437;SDS011;48481;0.000;0.000;2023-05-07T08:25:45;4.57;;;4.18;;
62437;SDS011;48481;0.000;0.000;2023-05-07T08:28:10;4.30;;;3.90;;
62437;SDS011;48481;0.000;0.000;2023-05-07T08:30:36;5.32;;;3.85;;
62437;SDS011;48481;0.000;0.000;2023-05-07T08:33:01;4.43;;;4.05;;
62437;SDS011;48481;0.000;0.000;2023-05-07T08:35:27;7.03;;;4.30;;
62437;SDS011;48481;0.000;0.000;2023-05-07T08:37:53;3.95;;;3.63;;
62437;SDS011;48481;0.000;0.000;2023-05-07T08:40:18;5.65;;;4.50;;
62437;SDS011;48481;0.000;0.000;2023-05-07T08:42:44;4.55;;;4.07;;
62437;SDS011;48481;0.000;0.000;2023-05-07T08:45:11;6.07;;;4.22;;
62437;SDS011;48481;0.000;0.000;2023-05-07T08:47:40;3.83;;;3.47;;
62437;SDS011;48481;0.000;0.000;2023-05-07T08:50:09;3.97;;;3.60;;
62437;SDS011;48481;0.000;0.000;2023-05-07T08:52:36;4.60;;;3.83;;
62437;SDS011;48481;0.000;0.000;2023-05-07T08:55:02;5.05;;;4.13;;
62437;SDS011;48481;0.000;0.000;2023-05-07T08:57:28;5.95;;;4.63;;
62437;SDS011;48481;0.000;0.000;2023-05-07T08:59:54;3.40;;;3.10;;
62437;SDS011;48481;0.000;0.000;2023-05-07T09:02:20;5.93;;;3.92;;
62437;SDS011;48481;0.000;0.000;2023-05-07T09:04:45;6.15;;;4.47;;
62437;SDS011;48481;0.000;0.000;2023-05-07T09:07:11;6.93;;;4.80;;
62437;SDS011;48481;0.000;0.000;2023-05-07T09:09:36;6.50;;;4.38;;
62437;SDS011;48481;0.000;0.000;2023-05-07T09:12:02;5.30;;;4.50;;
62437;SDS011;48481;0.000;0.000;2023-05-07T09:14:28;5.03;;;4.50;;
62437;SDS011;48481;0.000;0.000;2023-05-07T09:16:55;4.25;;;3.85;;
62437;SDS011;48481;0.000;0.000;2023-05-07T09:19:24;4.05;;;3.75;;
62437;SDS011;48481;0.000;0.000;2023-05-07T09:21:57;5.28;;;4.28;;
62437;SDS011;48481;0.000;0.000;2023-05-07T09:24:24;5.53;;;4.43;;
62437;SDS011;48481;0.000;0.000;2023-05-07T09:26:49;5.43;;;3.60;;
62437;SDS011;48481;0.000;0.000;2023-05-07T09:29:15;5.72;;;4.10;;
62437;SDS011;48481;0.000;0.000;2023-05-07T09:31:42;4.82;;;4.03;;
62437;SDS011;48481;0.000;0.000;2023-05-07T09:34:07;4.50;;;4.10;;
62437;SDS011;48481;0.000;0.000;2023-05-07T09:36:33;5.05;;;4.15;;
62437;SDS011;48481;0.000;0.000;2023-05-07T09:39:01;4.65;;;3.88;;
62437;SDS011;48481;0.000;0.000;2023-05-07T09:41:27;4.72;;;3.85;;
62437;SDS011;48481;0.000;0.000;2023-05-07T09:43:56;4.70;;;3.88;;
62437;SDS011;48481;0.000;0.000;2023-05-07T09:46:27;4.45;;;4.15;;
62437;SDS011;48481;0.000;0.000;2023-05-07T09:48:56;3.63;;;3.33;;
62437;SDS011;48481;0.000;0.000;2023-05-07T09:51:30;4.57;;;3.63;;
62437;SDS011;48481;0.000;0.000;2023-05-07T09:54:04;6.43;;;4.00;;
62437;SDS011;48481;0.000;0.000;2023-05-07T09:56:30;4.10;;;3.53;;
62437;SDS011;48481;0.000;0.000;2023-05-07T09:58:57;9.07;;;3.97;;
62437;SDS011;48481;0.000;0.000;2023-05-07T10:01:25;4.93;;;4.20;;
62437;SDS011;48481;0.000;0.000;2023-05-07T10:03:52;5.72;;;3.67;;
62437;SDS011;48481;0.000;0.000;2023-05-07T10:06:19;5.25;;;4.05;;
62437;SDS011;48481;0.000;0.000;2023-05-07T10:08:45;3.90;;;3.60;;
62437;SDS011;48481;0.000;0.000;2023-05-07T10:11:12;7.38;;;4.15;;
62437;SDS011;48481;0.000;0.000;2023-05-07T10:13:39;5.00;;;4.13;;
62437;SDS011;48481;0.000;0.000;2023-05-07T10:16:06;4.60;;;4.20;;
62437;SDS011;48481;0.000;0.000;2023-05-07T10:18:32;4.25;;;3.85;;
62437;SDS011;48481;0.000;0.000;2023-05-07T10:21:07;7.25;;;3.47;;
62437;SDS011;48481;0.000;0.000;2023-05-07T10:23:41;4.70;;;4.17;;
62437;SDS011;48481;0.000;0.000;2023-05-07T10:26:10;4.25;;;3.85;;
62437;SDS011;48481;0.000;0.000;2023-05-07T10:28:38;9.45;;;3.88;;
62437;SDS011;48481;0.000;0.000;2023-05-07T10:33:44;4.20;;;3.90;;
62437;SDS011;48481;0.000;0.000;2023-05-07T10:36:11;4.95;;;3.85;;
62437;SDS011;48481;0.000;0.000;2023-05-07T10:38:37;4.38;;;4.07;;
62437;SDS011;48481;0.000;0.000;2023-05-07T10:41:04;3.70;;;3.40;;
62437;SDS011;48481;0.000;0.000;2023-05-07T10:43:43;5.13;;;4.40;;
62437;SDS011;48481;0.000;0.000;2023-05-07T10:51:26;3.47;;;3.17;;
62437;SDS011;48481;0.000;0.000;2023-05-07T10:56:37;6.68;;;3.15;;
62437;SDS011;48481;0.000;0.000;2023-05-07T11:04:31;3.90;;;3.60;;
62437;SDS011;48481;0.000;0.000;2023-05-07T11:15:07;3.40;;;3.10;;
62437;SDS011;48481;0.000;0.000;2023-05-07T11:17:53;3.40;;;3.10;;
62437;SDS011;48481;0.000;0.000;2023-05-07T11:20:20;5.57;;;3.38;;
62437;SDS011;48481;0.000;0.000;2023-05-07T11:22:49;3.75;;;3.45;;
62437;SDS011;48481;0.000;0.000;2023-05-07T11:25:18;3.95;;;3.47;;
62437;SDS011;48481;0.000;0.000;2023-05-07T11:27:46;5.20;;;3.17;;
62437;SDS011;48481;0.000;0.000;2023-05-07T11:30:20;4.75;;;3.85;;
62437;SDS011;48481;0.000;0.000;2023-05-07T11:32:47;4.20;;;3.78;;
62437;SDS011;48481;0.000;0.000;2023-05-07T11:35:13;4.00;;;3.47;;
62437;SDS011;48481;0.000;0.000;2023-05-07T11:37:40;6.38;;;4.72;;
62437;SDS011;48481;0.000;0.000;2023-05-07T11:40:07;5.00;;;4.60;;
62437;SDS011;48481;0.000;0.000;2023-05-07T11:42:36;4.72;;;3.72;;
62437;SDS011;48481;0.000;0.000;2023-05-07T11:45:03;3.28;;;2.97;;
62437;SDS011;48481;0.000;0.000;2023-05-07T11:47:30;4.45;;;3.58;;
62437;SDS011;48481;0.000;0.000;2023-05-07T11:49:56;3.50;;;3.20;;
62437;SDS011;48481;0.000;0.000;2023-05-07T11:52:23;8.95;;;5.75;;
62437;SDS011;48481;0.000;0.000;2023-05-07T11:54:52;9.85;;;5.90;;
62437;SDS011;48481;0.000;0.000;2023-05-07T11:57:26;4.25;;;3.85;;
62437;SDS011;48481;0.000;0.000;2023-05-07T11:59:55;2.85;;;2.65;;
62437;SDS011;48481;0.000;0.000;2023-05-07T12:02:22;13.75;;;3.22;;
62437;SDS011;48481;0.000;0.000;2023-05-07T12:04:49;3.45;;;3.15;;
62437;SDS011;48481;0.000;0.000;2023-05-07T12:07:15;4.32;;;2.83;;
62437;SDS011;48481;0.000;0.000;2023-05-07T12:09:41;3.00;;;2.78;;
62437;SDS011;48481;0.000;0.000;2023-05-07T12:12:07;2.58;;;2.38;;
62437;SDS011;48481;0.000;0.000;2023-05-07T12:14:37;3.30;;;2.92;;
62437;SDS011;48481;0.000;0.000;2023-05-07T12:17:04;2.33;;;2.13;;
62437;SDS011;48481;0.000;0.000;2023-05-07T12:19:30;4.18;;;3.70;;
62437;SDS011;48481;0.000;0.000;2023-05-07T12:21:56;3.47;;;3.17;;
62437;SDS011;48481;0.000;0.000;2023-05-07T12:24:22;3.08;;;2.78;;
62437;SDS011;48481;0.000;0.000;2023-05-07T12:26:48;2.63;;;2.42;;
62437;SDS011;48481;0.000;0.000;2023-05-07T12:29:13;2.72;;;2.53;;
62437;SDS011;48481;0.000;0.000;2023-05-07T12:31:42;3.58;;;2.72;;
62437;SDS011;48481;0.000;0.000;2023-05-07T12:34:08;2.90;;;2.25;;
62437;SDS011;48481;0.000;0.000;2023-05-07T12:36:36;2.50;;;2.30;;
62437;SDS011;48481;0.000;0.000;2023-05-07T12:39:04;3.42;;;2.60;;
62437;SDS011;48481;0.000;0.000;2023-05-07T12:41:30;2.63;;;2.40;;
62437;SDS011;48481;0.000;0.000;2023-05-07T12:44:03;5.35;;;4.47;;
62437;SDS011;48481;0.000;0.000;2023-05-07T12:46:29;3.00;;;2.80;;
62437;SDS011;48481;0.000;0.000;2023-05-07T12:48:54;2.63;;;2.42;;
62437;SDS011;48481;0.000;0.000;2023-05-07T12:51:20;2.17;;;2.08;;
62437;SDS011;48481;0.000;0.000;2023-05-07T12:53:45;2.30;;;2.10;;
62437;SDS011;48481;0.000;0.000;2023-05-07T12:56:11;2.60;;;2.40;;
62437;SDS011;48481;0.000;0.000;2023-05-07T12:58:36;2.50;;;2.30;;
62437;SDS011;48481;0.000;0.000;2023-05-07T13:01:05;4.65;;;2.70;;
62437;SDS011;48481;0.000;0.000;2023-05-07T13:03:33;2.00;;;1.90;;
62437;SDS011;48481;0.000;0.000;2023-05-07T13:06:00;4.85;;;3.80;;
62437;SDS011;48481;0.000;0.000;2023-05-07T13:08:28;4.97;;;3.00;;
62437;SDS011;48481;0.000;0.000;2023-05-07T13:10:58;2.83;;;2.55;;
62437;SDS011;48481;0.000;0.000;2023-05-07T13:13:32;8.30;;;5.25;;
62437;SDS011;48481;0.000;0.000;2023-05-07T13:15:58;6.72;;;4.72;;
62437;SDS011;48481;0.000;0.000;2023-05-07T13:18:25;5.53;;;2.30;;
62437;SDS011;48481;0.000;0.000;2023-05-07T13:20:51;2.60;;;2.25;;
62437;SDS011;48481;0.000;0.000;2023-05-07T13:23:17;2.70;;;2.50;;
62437;SDS011;48481;0.000;0.000;2023-05-07T13:25:43;2.28;;;2.03;;
62437;SDS011;48481;0.000;0.000;2023-05-07T13:28:08;2.47;;;2.28;;
62437;SDS011;48481;0.000;0.000;2023-05-07T13:30:34;7.28;;;2.20;;
62437;SDS011;48481;0.000;0.000;2023-05-07T13:32:59;2.78;;;2.03;;
62437;SDS011;48481;0.000;0.000;2023-05-07T13:35:25;2.03;;;1.88;;
62437;SDS011;48481;0.000;0.000;2023-05-07T13:37:50;3.05;;;2.20;;
62437;SDS011;48481;0.000;0.000;2023-05-07T13:40:17;3.17;;;2.80;;
62437;SDS011;48481;0.000;0.000;2023-05-07T13:42:44;2.35;;;2.13;;
62437;SDS011;48481;0.000;0.000;2023-05-07T13:45:10;4.85;;;3.72;;
62437;SDS011;48481;0.000;0.000;2023-05-07T13:47:35;2.70;;;2.50;;
62437;SDS011;48481;0.000;0.000;2023-05-07T13:50:01;2.97;;;1.60;;
62437;SDS011;48481;0.000;0.000;2023-05-07T13:52:26;1.85;;;1.75;;
62437;SDS011;48481;0.000;0.000;2023-05-07T13:54:52;2.42;;;2.05;;
62437;SDS011;48481;0.000;0.000;2023-05-07T13:57:17;1.63;;;1.52;;
62437;SDS011;48481;0.000;0.000;2023-05-07T13:59:43;1.67;;;1.58;;
62437;SDS011;48481;0.000;0.000;2023-05-07T14:02:08;1.92;;;1.35;;
62437;SDS011;48481;0.000;0.000;2023-05-07T14:04:34;1.60;;;1.50;;
62437;SDS011;48481;0.000;0.000;2023-05-07T14:07:00;1.98;;;1.80;;
62437;SDS011;48481;0.000;0.000;2023-05-07T14:09:25;2.25;;;1.35;;
62437;SDS011;48481;0.000;0.000;2023-05-07T14:11:50;1.67;;;1.58;;
62437;SDS011;48481;0.000;0.000;2023-05-07T14:14:17;2.45;;;2.00;;
62437;SDS011;48481;0.000;0.000;2023-05-07T14:16:43;1.67;;;1.58;;
62437;SDS011;48481;0.000;0.000;2023-05-07T14:19:08;2.70;;;1.80;;
62437;SDS011;48481;0.000;0.000;2023-05-07T14:21:34;2.22;;;2.03;;
62437;SDS011;48481;0.000;0.000;2023-05-07T14:23:59;3.00;;;2.17;;
62437;SDS011;48481;0.000;0.000;2023-05-07T14:26:25;18.30;;;9.32;;
62437;SDS011;48481;0.000;0.000;2023-05-07T14:28:52;3.03;;;2.80;;
62437;SDS011;48481;0.000;0.000;2023-05-07T14:31:19;2.78;;;2.50;;
62437;SDS011;48481;0.000;0.000;2023-05-07T14:33:45;2.85;;;2.22;;
62437;SDS011;48481;0.000;0.000;2023-05-07T14:36:11;2.53;;;1.77;;
62437;SDS011;48481;0.000;0.000;2023-05-07T14:38:36;2.85;;;2.50;;
62437;SDS011;48481;0.000;0.000;2023-05-07T14:41:02;2.00;;;1.90;;
62437;SDS011;48481;0.000;0.000;2023-05-07T14:43:27;3.58;;;2.17;;
62437;SDS011;48481;0.000;0.000;2023-05-07T14:45:52;2.13;;;2.00;;
62437;SDS011;48481;0.000;0.000;2023-05-07T14:48:18;1.30;;;1.20;;
62437;SDS011;48481;0.000;0.000;2023-05-07T14:50:43;1.65;;;1.55;;
62437;SDS011;48481;0.000;0.000;2023-05-07T14:53:11;2.63;;;2.42;;
62437;SDS011;48481;0.000;0.000;2023-05-07T14:55:36;2.05;;;1.90;;
62437;SDS011;48481;0.000;0.000;2023-05-07T14:58:02;1.90;;;1.80;;
62437;SDS011;48481;0.000;0.000;2023-05-07T15:00:27;2.00;;;1.67;;
62437;SDS011;48481;0.000;0.000;2023-05-07T15:02:53;2.10;;;2.00;;
62437;SDS011;48481;0.000;0.000;2023-05-07T15:05:29;1.90;;;1.80;;
62437;SDS011;48481;0.000;0.000;2023-05-07T15:07:54;1.67;;;1.58;;
62437;SDS011;48481;0.000;0.000;2023-05-07T15:10:20;2.75;;;1.70;;
62437;SDS011;48481;0.000;0.000;2023-05-07T15:12:46;1.48;;;1.38;;
62437;SDS011;48481;0.000;0.000;2023-05-07T15:15:11;6.18;;;1.77;;
62437;SDS011;48481;0.000;0.000;2023-05-07T15:17:37;2.22;;;1.70;;
62437;SDS011;48481;0.000;0.000;2023-05-07T15:20:02;1.95;;;1.85;;